Time;durP1;ratioP1;P1;durP2;ratioP2;P2;SDS_P1;SDS_P2;PMS_P1;PMS_P2;Temp;Humidity;BMP_temperature;BMP_pressure;BME280_temperature;BME280_humidity;BME280_pressure;Samples;Min_cycle;Max_cycle;Signal;HPM_P1;HPM_P2
2023/05/02 00:00:15;;;;;;;140.10;62.80;;;;;;;18.59;57.07;101349.25;5082676;28;20029;-74
2023/05/02 00:02:40;;;;;;;147.13;62.50;;;;;;;18.60;56.95;101351.00;5087792;28;20025;-72
2023/05/02 00:05:06;;;;;;;150.90;63.17;;;;;;;18.59;57.21;101354.56;5065650;28;20025;-75
2023/05/02 00:07:32;;;;;;;139.93;61.47;;;;;;;18.60;57.05;101348.34;5054484;28;20025;-74
2023/05/02 00:09:58;;;;;;;138.07;61.70;;;;;;;18.61;56.82;101350.06;5066635;28;20482;-74
2023/05/02 00:12:23;;;;;;;141.23;61.80;;;;;;;18.61;57.50;101349.19;5046843;28;20021;-73
2023/05/02 00:14:48;;;;;;;141.20;62.28;;;;;;;18.61;57.74;101346.56;5056813;28;20086;-74
2023/05/02 00:17:18;;;;;;;151.77;63.50;;;;;;;18.61;57.60;101350.06;5053883;28;20017;-73
2023/05/02 00:19:43;;;;;;;143.48;62.75;;;;;;;18.62;57.47;101351.78;5054675;28;20032;-74
2023/05/02 00:22:09;;;;;;;136.43;61.70;;;;;;;18.62;58.04;101346.47;5057249;28;20070;-73
2023/05/02 00:24:34;;;;;;;141.50;62.10;;;;;;;18.61;58.03;101343.91;5055930;28;20047;-74
2023/05/02 00:27:00;;;;;;;142.90;62.20;;;;;;;18.62;57.46;101346.47;5037957;28;20021;-74
2023/05/02 00:29:25;;;;;;;141.13;61.30;;;;;;;18.61;57.89;101350.06;5054048;28;20386;-74
2023/05/02 00:31:50;;;;;;;139.48;59.95;;;;;;;18.62;57.55;101346.47;5053265;28;20021;-74
2023/05/02 00:34:16;;;;;;;156.95;64.72;;;;;;;18.63;57.38;101350.00;5056804;28;20025;-74
2023/05/02 00:36:41;;;;;;;135.57;61.13;;;;;;;18.63;58.00;101353.50;5055739;28;20027;-73
2023/05/02 00:39:06;;;;;;;140.73;62.75;;;;;;;18.63;57.63;101355.31;5052876;28;20047;-74
2023/05/02 00:41:31;;;;;;;141.55;63.75;;;;;;;18.63;58.14;101357.94;5054712;28;20442;-74
2023/05/02 00:43:57;;;;;;;136.35;61.67;;;;;;;18.63;57.41;101356.16;5037367;28;20557;-73
2023/05/02 00:46:22;;;;;;;138.85;62.53;;;;;;;18.63;58.19;101353.50;5052057;28;20447;-73
2023/05/02 00:48:48;;;;;;;139.15;61.60;;;;;;;18.63;57.69;101353.50;5055124;28;20568;-72
2023/05/02 00:51:13;;;;;;;140.07;61.47;;;;;;;18.62;57.32;101346.47;5068630;28;20032;-73
2023/05/02 00:53:40;;;;;;;139.45;61.67;;;;;;;18.62;57.44;101354.41;5068285;28;20036;-74
2023/05/02 00:56:05;;;;;;;135.77;60.17;;;;;;;18.61;57.86;101351.84;5060572;28;20020;-73
2023/05/02 00:58:31;;;;;;;136.32;62.05;;;;;;;18.61;57.80;101349.19;5062347;28;20021;-74
2023/05/02 01:01:14;;;;;;;138.57;62.35;;;;;;;18.60;58.21;101348.34;5063723;28;20021;-73
2023/05/02 01:03:46;;;;;;;141.80;63.15;;;;;;;18.61;58.51;101354.47;5064742;28;20037;-73
2023/05/02 01:06:30;;;;;;;142.32;61.92;;;;;;;18.60;57.82;101358.94;5054302;28;20029;-73
2023/05/02 01:09:11;;;;;;;136.90;62.20;;;;;;;18.59;58.45;101352.75;5055038;28;20031;-73
2023/05/02 01:12:02;;;;;;;144.88;62.10;;;;;;;18.58;58.61;101351.06;5056593;28;20025;-73
2023/05/02 01:14:29;;;;;;;136.10;61.25;;;;;;;18.58;58.24;101351.06;5052811;28;20025;-73
2023/05/02 01:16:57;;;;;;;133.63;59.50;;;;;;;18.57;58.17;101353.75;5056575;28;20017;-73
2023/05/02 01:19:25;;;;;;;136.85;61.00;;;;;;;18.57;58.03;101353.75;5062674;28;20025;-73
2023/05/02 01:21:52;;;;;;;135.23;61.08;;;;;;;18.57;58.65;101359.06;5037667;28;20135;-73
2023/05/02 01:24:26;;;;;;;159.35;64.13;;;;;;;18.57;58.65;101353.75;5052862;28;20052;-74
2023/05/02 01:27:16;;;;;;;138.38;61.50;;;;;;;18.56;57.98;101352.03;5037817;28;20060;-74
2023/05/02 01:29:43;;;;;;;137.65;60.80;;;;;;;18.56;58.77;101357.31;5045616;28;20036;-74
2023/05/02 01:32:09;;;;;;;146.90;63.15;;;;;;;18.55;58.44;101355.59;5055566;28;20032;-73
2023/05/02 01:34:37;;;;;;;141.88;62.00;;;;;;;18.55;58.58;101353.81;5053718;28;20029;-73
2023/05/02 01:37:05;;;;;;;140.88;62.75;;;;;;;18.54;58.10;101361.78;5034901;28;20044;-73
2023/05/02 01:39:31;;;;;;;136.82;61.95;;;;;;;18.53;58.67;101358.31;5056061;28;20032;-74
2023/05/02 01:41:57;;;;;;;133.70;59.92;;;;;;;18.54;59.07;101359.16;5034804;28;20373;-73
2023/05/02 01:44:23;;;;;;;147.75;64.35;;;;;;;18.53;59.06;101357.47;5067593;28;20039;-73
2023/05/02 01:46:50;;;;;;;131.75;59.92;;;;;;;18.53;58.46;101368.03;5030029;28;20020;-74
2023/05/02 01:49:15;;;;;;;153.18;64.25;;;;;;;18.53;58.77;101365.38;5047457;28;20035;-73
2023/05/02 01:51:46;;;;;;;137.68;61.20;;;;;;;18.53;58.72;101368.03;5053946;28;20108;-73
2023/05/02 01:54:12;;;;;;;152.77;64.07;;;;;;;18.53;59.14;101365.38;5052620;28;20021;-72
2023/05/02 01:56:38;;;;;;;139.88;63.15;;;;;;;18.53;58.65;101368.03;5050449;28;20029;-73
2023/05/02 01:59:13;;;;;;;131.80;60.63;;;;;;;18.52;58.84;101367.16;5052677;28;20500;-73
2023/05/02 02:01:39;;;;;;;139.07;60.95;;;;;;;18.52;59.17;101363.66;5048924;28;20025;-73
2023/05/02 02:04:06;;;;;;;140.70;61.40;;;;;;;18.52;58.77;101371.59;5049879;28;20037;-73
2023/05/02 02:06:32;;;;;;;139.23;61.15;;;;;;;18.50;59.22;101369.00;5057424;28;20029;-73
2023/05/02 02:08:57;;;;;;;142.65;61.03;;;;;;;18.51;59.03;101370.72;5066255;28;20443;-73
2023/05/02 02:11:33;;;;;;;138.48;62.55;;;;;;;18.52;59.31;101379.53;5051400;28;20039;-73
2023/05/02 02:14:06;;;;;;;138.10;61.05;;;;;;;18.51;58.97;101372.50;5050812;28;20029;-73
2023/05/02 02:16:33;;;;;;;140.98;62.50;;;;;;;18.51;59.14;101378.66;5050260;28;20025;-73
2023/05/02 02:19:09;;;;;;;141.10;62.83;;;;;;;18.51;59.34;101380.44;5035364;28;20492;-73
2023/05/02 02:21:37;;;;;;;133.60;60.95;;;;;;;18.51;59.21;101388.38;5053095;28;20025;-73
2023/05/02 02:24:04;;;;;;;138.82;62.10;;;;;;;18.51;59.39;101385.72;5051887;28;20480;-73
2023/05/02 02:26:29;;;;;;;138.73;60.85;;;;;;;18.50;58.88;101391.94;5050307;28;20090;-73
2023/05/02 02:28:55;;;;;;;133.23;62.65;;;;;;;18.51;59.63;101401.59;5055916;28;20123;-73
2023/05/02 02:31:20;;;;;;;136.70;61.47;;;;;;;18.51;59.01;101398.97;5037673;28;20114;-73
2023/05/02 02:33:46;;;;;;;144.00;63.67;;;;;;;18.49;59.54;101403.47;5033332;28;20029;-73
2023/05/02 02:36:17;;;;;;;147.32;63.40;;;;;;;18.49;59.48;101412.25;5048662;28;20456;-73
2023/05/02 02:39:03;;;;;;;141.95;62.05;;;;;;;18.49;59.50;101419.34;5048624;28;20094;-73
2023/05/02 02:41:36;;;;;;;141.50;62.60;;;;;;;18.50;59.92;101431.63;5051502;28;20027;-74
2023/05/02 02:44:17;;;;;;;137.30;60.70;;;;;;;18.49;59.90;101440.50;5052376;28;20025;-75
2023/05/02 02:46:50;;;;;;;140.23;62.30;;;;;;;18.49;59.50;101443.13;5060673;28;20031;-75
2023/05/02 02:49:38;;;;;;;139.45;61.25;;;;;;;18.48;60.05;101446.69;5057665;28;20029;-74
2023/05/02 02:52:19;;;;;;;141.50;61.28;;;;;;;18.48;59.42;101444.06;5066503;28;20017;-74
2023/05/02 02:55:23;;;;;;;138.10;59.97;;;;;;;18.47;59.52;101450.25;5061840;28;20017;-75
2023/05/02 02:57:59;;;;;;;133.23;61.35;;;;;;;18.46;59.49;101461.75;5057867;28;20057;-73
2023/05/02 03:00:26;;;;;;;141.15;62.58;;;;;;;18.45;59.53;101475.88;5082071;28;20009;-73
2023/05/02 03:02:53;;;;;;;139.40;61.17;;;;;;;18.45;59.69;101481.19;5079206;28;20036;-73
2023/05/02 03:05:18;;;;;;;138.07;62.25;;;;;;;18.45;59.54;101487.34;5086709;28;20137;-74
2023/05/02 03:07:43;;;;;;;144.27;64.03;;;;;;;18.44;59.29;101488.25;5085326;28;20079;-74
2023/05/02 03:10:10;;;;;;;139.40;61.72;;;;;;;18.43;59.55;101494.47;5076780;28;20024;-74
2023/05/02 03:12:36;;;;;;;140.25;60.47;;;;;;;18.42;59.56;101505.97;5058937;28;20024;-74
2023/05/02 03:15:32;;;;;;;134.68;61.20;;;;;;;18.42;59.12;101506.84;5052661;28;20025;-74
2023/05/02 03:17:57;;;;;;;137.23;60.25;;;;;;;18.41;59.35;101506.91;5055975;28;20033;-73
2023/05/02 03:20:23;;;;;;;142.43;61.83;;;;;;;18.41;59.55;101518.31;5051841;28;20033;-71
2023/05/02 03:22:48;;;;;;;136.13;62.00;;;;;;;18.40;59.90;101529.81;5053362;28;20025;-75
2023/05/02 03:25:13;;;;;;;140.55;61.58;;;;;;;18.39;59.32;101530.75;5040084;28;20035;-74
2023/05/02 03:27:39;;;;;;;134.63;60.97;;;;;;;18.40;58.73;101537.75;5058762;28;20031;-74
2023/05/02 03:30:05;;;;;;;142.38;65.22;;;;;;;18.39;59.25;101538.69;5051034;28;20025;-74
2023/05/02 03:32:30;;;;;;;139.02;61.55;;;;;;;18.38;59.33;101541.41;5051701;28;20078;-74
2023/05/02 03:34:57;;;;;;;136.20;59.88;;;;;;;18.36;58.73;101541.44;5055066;28;20066;-74
2023/05/02 03:37:23;;;;;;;138.63;61.28;;;;;;;18.36;59.18;101552.00;5062739;28;20033;-74
2023/05/02 03:39:48;;;;;;;139.75;61.30;;;;;;;18.36;59.29;101545.88;5060572;28;20486;-74
2023/05/02 03:42:14;;;;;;;139.63;62.13;;;;;;;18.36;59.28;101554.66;5055033;28;20071;-74
2023/05/02 03:44:39;;;;;;;137.57;60.50;;;;;;;18.34;59.29;101559.16;5049407;28;20087;-74
2023/05/02 03:47:05;;;;;;;138.00;61.90;;;;;;;18.34;59.70;101564.44;5055403;28;20108;-74
2023/05/02 03:49:33;;;;;;;154.30;65.35;;;;;;;18.33;59.06;101565.34;5060100;28;20052;-74
2023/05/02 03:51:58;;;;;;;140.52;63.35;;;;;;;18.33;58.83;101575.06;5051986;28;20033;-75
2023/05/02 03:54:24;;;;;;;142.95;62.53;;;;;;;18.33;59.34;101581.22;5049475;28;20429;-74
2023/05/02 03:56:50;;;;;;;138.13;61.40;;;;;;;18.32;59.30;101582.13;5065725;28;20465;-74
2023/05/02 03:59:15;;;;;;;142.00;62.47;;;;;;;18.33;59.59;101583.00;5051415;28;20027;-74
2023/05/02 04:01:41;;;;;;;144.20;63.78;;;;;;;18.32;59.29;101590.06;5049168;28;20024;-75
2023/05/02 04:04:06;;;;;;;148.50;61.90;;;;;;;18.33;59.11;101590.94;5050553;28;20057;-74
2023/05/02 04:06:31;;;;;;;140.40;60.45;;;;;;;18.33;59.42;101602.38;5053762;28;20085;-75
2023/05/02 04:08:58;;;;;;;138.57;60.70;;;;;;;18.33;58.59;101601.50;5050642;28;20037;-74
2023/05/02 04:11:25;;;;;;;139.13;65.28;;;;;;;18.32;59.51;101605.91;5050851;28;20024;-74
2023/05/02 04:13:51;;;;;;;140.30;66.63;;;;;;;18.32;59.38;101613.84;5049734;28;20470;-72
2023/05/02 04:16:16;;;;;;;142.23;63.25;;;;;;;18.32;59.09;101619.16;5065284;28;20112;-74
2023/05/02 04:18:41;;;;;;;144.27;65.78;;;;;;;18.33;59.07;101615.59;5050282;28;20111;-74
2023/05/02 04:21:09;;;;;;;148.20;67.45;;;;;;;18.34;59.21;101627.91;5045930;28;20076;-74
2023/05/02 04:23:35;;;;;;;146.52;64.38;;;;;;;18.34;58.84;101635.00;5060819;28;20041;-74
2023/05/02 04:26:00;;;;;;;145.63;66.82;;;;;;;18.34;59.44;101643.78;5062459;28;20425;-74
2023/05/02 04:28:25;;;;;;;147.38;68.78;;;;;;;18.33;58.63;101649.97;5062389;28;20029;-73
2023/05/02 04:30:51;;;;;;;141.82;71.72;;;;;;;18.32;58.59;101650.88;5064961;28;20028;-74
2023/05/02 04:33:17;;;;;;;140.15;68.25;;;;;;;18.34;58.59;101650.84;5053317;28;20025;-74
2023/05/02 04:35:43;;;;;;;150.52;66.97;;;;;;;18.34;58.88;101654.34;5050732;28;20043;-74
2023/05/02 04:38:08;;;;;;;138.98;71.30;;;;;;;18.34;59.15;101659.66;5047216;28;20099;-74
2023/05/02 04:40:35;;;;;;;148.95;68.72;;;;;;;18.35;58.92;101661.38;5052457;28;20029;-75
2023/05/02 04:43:00;;;;;;;142.05;73.93;;;;;;;18.39;59.16;101668.28;5053130;28;20497;-75
2023/05/02 04:45:26;;;;;;;146.57;67.90;;;;;;;18.42;57.92;101673.47;5061706;28;20083;-75
2023/05/02 04:47:51;;;;;;;145.52;72.57;;;;;;;18.50;58.25;101677.63;5063228;28;20045;-76
2023/05/02 04:50:17;;;;;;;160.23;73.47;;;;;;;18.56;57.84;101680.09;5053106;28;20020;-75
2023/05/02 04:52:42;;;;;;;149.95;62.38;;;;;;;18.58;57.46;101689.69;5034921;28;20054;-75
2023/05/02 04:55:07;;;;;;;142.63;63.42;;;;;;;18.62;57.70;101685.16;5053353;28;20321;-75
2023/05/02 04:57:33;;;;;;;137.77;60.55;;;;;;;18.65;57.69;101700.06;5054580;28;20543;-75
2023/05/02 04:59:58;;;;;;;135.82;61.05;;;;;;;18.64;58.38;101708.91;5061952;28;20037;-75
2023/05/02 05:02:25;;;;;;;142.52;62.05;;;;;;;18.60;57.90;101708.16;5054535;28;20028;-75
2023/05/02 05:04:50;;;;;;;135.85;59.42;;;;;;;18.57;58.24;101711.78;5055346;28;20052;-74
2023/05/02 05:07:16;;;;;;;137.15;60.85;;;;;;;18.55;57.89;101715.38;5055842;28;20067;-75
2023/05/02 05:09:41;;;;;;;147.10;63.00;;;;;;;18.54;58.43;101721.59;5051654;28;20075;-74
2023/05/02 05:12:06;;;;;;;138.38;62.00;;;;;;;18.51;57.83;101713.75;5052476;28;20025;-75
2023/05/02 05:14:32;;;;;;;130.48;60.17;;;;;;;18.50;58.14;101727.91;5069456;28;20021;-74
2023/05/02 05:16:58;;;;;;;162.38;64.60;;;;;;;18.49;58.38;101731.47;5053775;28;20225;-75
2023/05/02 05:19:23;;;;;;;141.18;62.47;;;;;;;18.49;57.85;101736.78;5055540;28;20017;-75
2023/05/02 05:21:49;;;;;;;145.30;61.58;;;;;;;18.47;58.10;101738.59;5049279;28;20035;-75
2023/05/02 05:24:14;;;;;;;157.43;63.65;;;;;;;18.47;58.20;101743.88;5053399;28;20074;-75
2023/05/02 05:26:40;;;;;;;140.10;61.78;;;;;;;18.46;57.81;101742.13;5060864;28;20107;-75
2023/05/02 05:29:06;;;;;;;144.98;62.00;;;;;;;18.46;58.11;101744.78;5053619;28;20027;-75
2023/05/02 05:31:31;;;;;;;153.73;63.65;;;;;;;18.44;58.24;101742.19;5065590;28;20047;-75
2023/05/02 05:33:57;;;;;;;139.73;60.90;;;;;;;18.44;58.28;101751.91;5059972;28;20825;-75
2023/05/02 05:36:22;;;;;;;145.10;62.55;;;;;;;18.41;57.60;101756.38;5067184;28;20024;-75
2023/05/02 05:38:48;;;;;;;139.55;62.08;;;;;;;18.40;57.89;101759.94;5044829;28;20032;-74
2023/05/02 05:41:13;;;;;;;136.50;61.70;;;;;;;18.39;57.95;101774.09;5051336;28;20070;-75
2023/05/02 05:43:38;;;;;;;131.15;61.45;;;;;;;18.37;58.04;101770.63;5059986;28;20659;-75
2023/05/02 05:46:04;;;;;;;142.85;63.30;;;;;;;18.36;58.24;101773.31;5066326;28;20025;-74
2023/05/02 05:48:29;;;;;;;141.32;62.97;;;;;;;18.36;58.63;101774.16;5054807;28;20025;-75
2023/05/02 05:50:55;;;;;;;135.65;61.75;;;;;;;18.35;58.80;101783.03;5066561;28;20528;-75
2023/05/02 05:53:20;;;;;;;136.13;59.97;;;;;;;18.36;58.74;101787.41;5059071;28;20119;-75
2023/05/02 05:55:45;;;;;;;137.13;61.67;;;;;;;18.34;58.60;101791.88;5060736;28;20051;-75
2023/05/02 05:58:11;;;;;;;139.50;63.70;;;;;;;18.34;58.41;101797.19;5050507;22;20041;-75
2023/05/02 06:00:37;;;;;;;164.07;65.97;;;;;;;18.34;57.66;101807.75;5037850;28;20171;-75
2023/05/02 06:03:04;;;;;;;144.43;61.80;;;;;;;18.35;58.37;101808.59;5025514;28;20025;-75
2023/05/02 06:05:29;;;;;;;144.70;63.53;;;;;;;18.32;58.42;101809.56;5036253;28;20068;-74
2023/05/02 06:07:55;;;;;;;147.75;63.65;;;;;;;18.45;58.00;101814.47;5034287;28;20478;-75
2023/05/02 06:10:21;;;;;;;169.45;64.40;;;;;;;18.51;57.79;101822.22;5036236;28;20030;-76
2023/05/02 06:12:46;;;;;;;156.27;64.30;;;;;;;18.42;52.03;101816.31;5041618;28;20730;-71
2023/05/02 06:15:11;;;;;;;146.02;61.75;;;;;;;18.27;52.64;101819.44;5031770;28;20093;-71
2023/05/02 06:17:37;;;;;;;152.68;61.72;;;;;;;18.07;49.76;101825.31;5039750;28;20029;-71
2023/05/02 06:20:02;;;;;;;142.15;61.08;;;;;;;17.83;48.44;101829.50;5033608;28;20025;-72
2023/05/02 06:22:28;;;;;;;160.85;62.92;;;;;;;17.68;49.21;101829.06;5032596;28;20037;-71
2023/05/02 06:24:53;;;;;;;142.57;62.25;;;;;;;17.57;49.77;101832.00;5033490;28;20120;-71
2023/05/02 06:27:18;;;;;;;143.45;61.88;;;;;;;17.48;49.42;101832.25;5029274;28;20033;-71
2023/05/02 06:29:44;;;;;;;148.00;63.17;;;;;;;17.43;48.71;101843.84;5033767;28;20036;-72
2023/05/02 06:32:09;;;;;;;153.18;62.55;;;;;;;17.37;48.15;101843.09;5032726;28;20083;-72
2023/05/02 06:34:35;;;;;;;165.25;64.95;;;;;;;17.23;47.80;101845.22;5025637;28;20025;-71
2023/05/02 06:37:00;;;;;;;151.80;63.65;;;;;;;17.14;49.92;101856.00;5036488;28;20051;-72
2023/05/02 06:39:25;;;;;;;148.93;62.78;;;;;;;17.11;49.61;101856.97;5033198;28;20025;-71
2023/05/02 06:41:55;;;;;;;144.77;60.63;;;;;;;17.14;49.34;101863.91;5032451;28;20033;-71
2023/05/02 06:44:21;;;;;;;177.77;66.32;;;;;;;17.11;48.56;101872.81;5033554;28;20108;-71
2023/05/02 06:46:46;;;;;;;148.68;63.15;;;;;;;17.17;48.17;101877.91;5032885;28;20120;-71
2023/05/02 06:49:11;;;;;;;149.40;64.25;;;;;;;17.08;47.62;101886.06;5034864;28;20120;-72
2023/05/02 06:51:37;;;;;;;152.43;63.78;;;;;;;17.11;48.03;101885.13;5041092;28;20458;-71
2023/05/02 06:54:02;;;;;;;149.20;63.50;;;;;;;17.05;47.65;101887.00;5047298;28;20017;-71
2023/05/02 06:56:27;;;;;;;162.07;64.97;;;;;;;17.02;48.60;101897.63;5033633;28;20044;-71
2023/05/02 06:58:53;;;;;;;150.35;63.95;;;;;;;17.05;46.38;101902.84;5033158;28;20036;-71
2023/05/02 07:01:18;;;;;;;158.18;64.75;;;;;;;17.05;46.69;101905.47;5030551;28;20028;-71
2023/05/02 07:03:45;;;;;;;146.82;62.60;;;;;;;16.96;45.00;101913.63;5032039;28;20040;-71
2023/05/02 07:06:10;;;;;;;143.90;62.35;;;;;;;16.93;45.37;101910.19;5034459;28;20021;-72
2023/05/02 07:08:35;;;;;;;159.95;65.60;;;;;;;16.95;47.61;101919.81;5017565;28;20033;-71
2023/05/02 07:11:01;;;;;;;151.35;62.90;;;;;;;16.99;47.78;101924.13;5026559;28;20029;-77
2023/05/02 07:13:27;;;;;;;140.32;61.92;;;;;;;17.12;50.64;101926.47;5035618;28;20018;-74
2023/05/02 07:15:52;;;;;;;149.77;63.42;;;;;;;17.34;50.85;101925.03;5029013;28;20056;-77
2023/05/02 07:18:18;;;;;;;174.98;69.13;;;;;;;17.59;50.90;101924.41;5020456;28;20036;-74
2023/05/02 07:20:43;;;;;;;144.57;64.55;;;;;;;17.77;49.72;101930.97;5037490;28;20028;-73
2023/05/02 07:23:08;;;;;;;140.88;64.57;;;;;;;17.94;50.16;101930.53;5037748;28;20022;-76
2023/05/02 07:25:35;;;;;;;147.27;62.42;;;;;;;18.10;49.80;101932.78;5035834;28;20027;-76
2023/05/02 07:28:00;;;;;;;145.90;63.08;;;;;;;18.24;49.16;101930.59;5037950;28;20018;-74
2023/05/02 07:30:26;;;;;;;140.25;61.53;;;;;;;18.37;49.28;101939.91;5035562;28;20024;-73
2023/05/02 07:32:51;;;;;;;145.70;62.50;;;;;;;18.47;48.49;101944.94;5035871;28;20517;-73
2023/05/02 07:35:16;;;;;;;141.15;61.70;;;;;;;18.56;49.02;101944.66;5031422;28;20382;-74
2023/05/02 07:37:42;;;;;;;143.07;61.38;;;;;;;18.63;48.83;101946.19;5040322;28;20094;-73
2023/05/02 07:40:08;;;;;;;150.63;63.53;;;;;;;18.67;48.95;101950.47;5045404;28;20094;-74
2023/05/02 07:42:34;;;;;;;152.65;62.90;;;;;;;18.72;48.84;101943.28;5010076;28;20022;-74
2023/05/02 07:44:59;;;;;;;148.35;62.63;;;;;;;18.76;48.64;101957.28;5029274;28;20029;-74
2023/05/02 07:47:25;;;;;;;145.07;61.33;;;;;;;18.81;49.29;101954.50;5031031;28;20454;-74
2023/05/02 07:49:54;;;;;;;147.05;62.65;;;;;;;18.86;49.38;101960.53;5031345;28;20025;-74
2023/05/02 07:52:20;;;;;;;153.35;62.22;;;;;;;18.89;49.30;101965.75;5029661;28;20032;-74
2023/05/02 07:54:49;;;;;;;144.75;62.78;;;;;;;18.92;49.83;101965.63;5036489;28;20074;-75
2023/05/02 07:57:14;;;;;;;157.90;64.10;;;;;;;18.92;49.08;101963.00;5032179;28;20025;-72
2023/05/02 07:59:40;;;;;;;150.48;63.80;;;;;;;18.94;49.07;101968.25;5035469;28;20471;-75
2023/05/02 08:02:06;;;;;;;148.82;62.40;;;;;;;18.95;48.79;101968.22;5042967;28;20110;-73
2023/05/02 08:04:31;;;;;;;155.55;63.53;;;;;;;18.96;48.95;101974.38;5025202;28;20022;-73
2023/05/02 08:06:56;;;;;;;143.35;62.00;;;;;;;18.96;49.02;101974.38;5015979;28;20050;-72
2023/05/02 08:09:22;;;;;;;144.70;60.97;;;;;;;18.98;49.48;101973.41;5034617;28;20021;-73
2023/05/02 08:11:47;;;;;;;151.75;63.88;;;;;;;19.02;48.85;101984.75;5036005;28;20041;-73
2023/05/02 08:14:13;;;;;;;164.75;65.65;;;;;;;19.05;49.25;101980.22;5039345;28;20449;-74
2023/05/02 08:16:39;;;;;;;147.50;63.67;;;;;;;19.07;48.78;101989.00;5021624;28;20398;-74
2023/05/02 08:19:04;;;;;;;145.60;63.45;;;;;;;19.11;48.74;101994.19;5038873;28;20020;-74
2023/05/02 08:21:30;;;;;;;142.27;63.70;;;;;;;19.13;48.62;101997.66;5043611;28;20501;-75
2023/05/02 08:23:57;;;;;;;143.10;62.72;;;;;;;19.16;48.53;102008.16;5045981;28;20040;-74
2023/05/02 08:26:23;;;;;;;138.15;61.80;;;;;;;19.14;49.02;102007.34;5036563;28;20032;-74
2023/05/02 08:28:50;;;;;;;149.02;65.60;;;;;;;19.13;49.12;102013.53;5017252;28;20035;-75
2023/05/02 08:31:15;;;;;;;145.20;63.17;;;;;;;19.15;48.91;102011.72;5017410;28;20116;-74
2023/05/02 08:33:40;;;;;;;149.57;65.47;;;;;;;19.15;48.71;102017.03;5033264;28;20386;-74
2023/05/02 08:36:16;;;;;;;158.02;63.08;;;;;;;19.18;49.08;102023.09;5045443;28;20036;-74
2023/05/02 08:38:42;;;;;;;142.32;64.03;;;;;;;19.23;49.11;102022.94;5035404;28;20310;-74
2023/05/02 08:41:18;;;;;;;141.75;62.70;;;;;;;19.29;48.40;102014.78;5034148;28;20500;-73
2023/05/02 08:43:44;;;;;;;144.23;62.80;;;;;;;19.34;48.61;102025.25;5026284;28;20017;-74
2023/05/02 08:46:11;;;;;;;133.82;61.90;;;;;;;19.33;47.73;102026.16;5047391;28;20049;-74
2023/05/02 08:48:37;;;;;;;144.35;61.55;;;;;;;19.38;47.80;102033.03;5032729;28;20502;-72
2023/05/02 08:51:03;;;;;;;142.27;61.65;;;;;;;19.42;47.46;102034.69;5031074;28;20116;-74
2023/05/02 08:53:34;;;;;;;145.98;63.88;;;;;;;19.47;47.08;102036.31;5032657;28;20021;-74
2023/05/02 08:56:00;;;;;;;142.70;62.58;;;;;;;19.48;47.60;102040.69;5033724;28;20022;-73
2023/05/02 08:58:25;;;;;;;145.35;62.35;;;;;;;19.55;46.87;102031.63;5034374;28;20029;-73
2023/05/02 09:00:51;;;;;;;149.27;61.45;;;;;;;19.64;47.04;102035.78;5034463;28;20476;-73
2023/05/02 09:03:30;;;;;;;144.52;63.13;;;;;;;19.92;45.78;102033.97;5028751;28;20033;-72
2023/05/02 09:06:13;;;;;;;144.30;61.10;;;;;;;20.14;45.52;102037.63;5016164;28;20395;-73
2023/05/02 09:08:39;;;;;;;137.82;60.47;;;;;;;20.18;45.09;102044.56;5034048;28;20047;-73
2023/05/02 09:11:05;;;;;;;145.85;62.38;;;;;;;20.38;45.04;102042.09;5017281;28;20033;-73
2023/05/02 09:13:35;;;;;;;143.75;61.67;;;;;;;20.53;44.39;102037.13;5014000;28;20061;-73
2023/05/02 09:16:03;;;;;;;147.90;61.55;;;;;;;20.57;44.34;102036.09;5011757;28;20035;-73
2023/05/02 09:18:33;;;;;;;145.85;61.45;;;;;;;20.58;44.27;102032.53;5029732;28;20034;-73
2023/05/02 09:21:01;;;;;;;156.38;62.92;;;;;;;20.51;44.46;102046.94;5033066;28;20025;-74
2023/05/02 09:23:40;;;;;;;153.30;62.97;;;;;;;20.46;44.81;102056.84;5031753;28;20032;-73
2023/05/02 09:26:18;;;;;;;146.63;62.00;;;;;;;20.41;45.03;102060.53;5026360;28;20068;-73
2023/05/02 09:28:52;;;;;;;144.20;62.45;;;;;;;20.35;45.27;102055.44;5026488;28;20482;-73
2023/05/02 09:31:26;;;;;;;137.57;60.78;;;;;;;20.25;45.22;102054.91;5027654;28;20039;-73
2023/05/02 09:33:52;;;;;;;143.50;62.65;;;;;;;20.17;45.49;102064.06;5023305;28;20049;-72
2023/05/02 09:36:18;;;;;;;145.13;63.45;;;;;;;20.17;45.19;102056.97;5030232;28;20769;-72
2023/05/02 09:38:45;;;;;;;138.55;60.38;;;;;;;20.30;44.86;102061.84;5034677;28;20067;-72
2023/05/02 09:41:11;;;;;;;143.70;62.63;;;;;;;20.44;44.89;102071.03;5038368;28;20048;-73
2023/05/02 09:43:37;;;;;;;139.90;60.90;;;;;;;20.52;44.35;102072.53;5010017;28;20928;-73
2023/05/02 09:46:07;;;;;;;143.90;62.78;;;;;;;20.54;44.18;102076.03;5030156;28;20027;-73
2023/05/02 09:48:56;;;;;;;146.85;62.63;;;;;;;20.54;44.78;102076.03;5026492;28;20100;-73
2023/05/02 09:51:23;;;;;;;142.68;60.70;;;;;;;20.53;44.03;102075.16;5029247;28;20087;-72
2023/05/02 09:53:49;;;;;;;147.27;63.13;;;;;;;20.52;43.82;102077.84;5031248;28;20379;-73
2023/05/02 09:56:14;;;;;;;156.88;64.53;;;;;;;20.49;43.87;102086.81;5031417;28;20024;-73
2023/05/02 09:58:40;;;;;;;145.82;60.78;;;;;;;20.43;43.98;102082.56;5028873;28;20021;-71
2023/05/02 10:01:05;;;;;;;143.55;61.08;;;;;;;20.35;43.86;102091.75;5030789;28;20104;-73
2023/05/02 10:03:35;;;;;;;138.20;60.80;;;;;;;20.30;44.24;102089.25;5030407;28;20022;-73
2023/05/02 10:06:01;;;;;;;143.57;60.78;;;;;;;20.25;43.86;102085.88;5036522;28;20117;-73
2023/05/02 10:08:27;;;;;;;138.45;61.67;;;;;;;20.22;44.09;102091.28;5031033;28;20100;-72
2023/05/02 10:10:53;;;;;;;140.85;61.42;;;;;;;20.22;44.03;102091.28;5031092;28;20044;-73
2023/05/02 10:13:25;;;;;;;141.07;60.60;;;;;;;20.25;43.70;102088.53;5031546;28;20033;-73
2023/05/02 10:16:01;;;;;;;142.43;62.38;;;;;;;20.36;43.86;102096.97;5030770;28;20033;-73
2023/05/02 10:18:39;;;;;;;144.50;60.47;;;;;;;20.54;42.69;102091.94;5029382;28;20151;-73
2023/05/02 10:21:07;;;;;;;132.63;59.72;;;;;;;20.60;42.68;102084.63;5030359;28;20032;-75
2023/05/02 10:23:33;;;;;;;132.18;59.03;;;;;;;20.57;43.00;102086.53;5030168;28;20029;-75
2023/05/02 10:25:59;;;;;;;149.23;61.30;;;;;;;20.55;43.44;102093.69;5028563;28;20036;-75
2023/05/02 10:28:26;;;;;;;137.30;60.72;;;;;;;20.54;42.82;102091.94;5034955;28;20029;-74
2023/05/02 10:30:52;;;;;;;130.45;59.40;;;;;;;20.51;43.33;102097.38;5033710;28;20025;-75
2023/05/02 10:33:20;;;;;;;132.57;62.72;;;;;;;20.41;42.65;102103.00;5033906;28;20079;-76
2023/05/02 10:35:46;;;;;;;139.18;60.75;;;;;;;20.33;43.38;102099.75;5033440;28;20021;-75
2023/05/02 10:38:13;;;;;;;149.25;62.67;;;;;;;20.24;42.67;102110.69;5016449;28;20033;-74
2023/05/02 10:40:39;;;;;;;140.15;60.10;;;;;;;20.15;43.58;102109.22;5034065;28;20041;-75
2023/05/02 10:43:05;;;;;;;139.48;60.60;;;;;;;20.07;43.39;102109.47;5033096;28;20399;-75
2023/05/02 10:45:35;;;;;;;139.40;61.03;;;;;;;20.04;42.95;102108.69;5014458;28;20022;-75
2023/05/02 10:48:12;;;;;;;138.10;60.25;;;;;;;20.00;44.02;102105.31;5032441;28;20056;-75
2023/05/02 10:50:43;;;;;;;138.80;61.22;;;;;;;20.01;43.73;102108.81;5034400;28;20040;-77
2023/05/02 10:53:20;;;;;;;141.20;62.47;;;;;;;20.02;42.66;102108.75;5032976;28;20040;-75
2023/05/02 10:56:15;;;;;;;139.25;61.30;;;;;;;20.05;43.04;102118.41;5034013;28;20036;-75
2023/05/02 10:58:43;;;;;;;135.45;59.15;;;;;;;19.98;43.62;102117.72;5031130;28;20498;-75
2023/05/02 11:01:27;;;;;;;136.15;60.63;;;;;;;19.94;44.03;102118.75;5033387;28;20029;-75
2023/05/02 11:04:06;;;;;;;139.73;61.10;;;;;;;19.85;42.93;102134.97;5033973;28;20033;-74